sensor_id;sensor_type;location;lat;lon;timestamp;P1;durP1;ratioP1;P2;durP2;ratioP2
5622;SDS011;2833;50.432;10.706;2023-07-31T00:02:21;4.80;;;2.20;;
5622;SDS011;2833;50.432;10.706;2023-07-31T00:04:47;2.03;;;1.83;;
5622;SDS011;2833;50.432;10.706;2023-07-31T00:07:12;2.00;;;1.90;;
5622;SDS011;2833;50.432;10.706;2023-07-31T00:09:37;3.17;;;2.50;;
5622;SDS011;2833;50.432;10.706;2023-07-31T00:12:03;4.23;;;2.30;;
5622;SDS011;2833;50.432;10.706;2023-07-31T00:14:28;2.93;;;1.87;;
5622;SDS011;2833;50.432;10.706;2023-07-31T00:16:53;5.07;;;2.33;;
5622;SDS011;2833;50.432;10.706;2023-07-31T00:19:18;3.40;;;2.20;;
5622;SDS011;2833;50.432;10.706;2023-07-31T00:21:44;3.53;;;1.90;;
5622;SDS011;2833;50.432;10.706;2023-07-31T00:24:09;3.60;;;1.83;;
5622;SDS011;2833;50.432;10.706;2023-07-31T00:26:34;3.60;;;2.50;;
5622;SDS011;2833;50.432;10.706;2023-07-31T00:28:59;2.47;;;1.93;;
5622;SDS011;2833;50.432;10.706;2023-07-31T00:31:25;1.90;;;1.80;;
5622;SDS011;2833;50.432;10.706;2023-07-31T00:33:50;2.80;;;2.10;;
5622;SDS011;2833;50.432;10.706;2023-07-31T00:36:15;6.37;;;2.10;;
5622;SDS011;2833;50.432;10.706;2023-07-31T00:38:40;2.77;;;2.10;;
5622;SDS011;2833;50.432;10.706;2023-07-31T00:41:05;3.80;;;2.00;;
5622;SDS011;2833;50.432;10.706;2023-07-31T00:43:31;3.03;;;2.03;;
5622;SDS011;2833;50.432;10.706;2023-07-31T00:45:56;3.57;;;2.33;;
5622;SDS011;2833;50.432;10.706;2023-07-31T00:48:21;4.33;;;2.33;;
5622;SDS011;2833;50.432;10.706;2023-07-31T00:50:46;2.83;;;2.00;;
5622;SDS011;2833;50.432;10.706;2023-07-31T00:53:12;2.03;;;1.80;;
5622;SDS011;2833;50.432;10.706;2023-07-31T00:55:37;4.17;;;2.10;;
5622;SDS011;2833;50.432;10.706;2023-07-31T00:58:03;4.13;;;1.93;;
5622;SDS011;2833;50.432;10.706;2023-07-31T01:00:28;2.17;;;2.00;;
5622;SDS011;2833;50.432;10.706;2023-07-31T01:02:53;4.57;;;2.20;;
5622;SDS011;2833;50.432;10.706;2023-07-31T01:05:19;2.73;;;2.03;;
5622;SDS011;2833;50.432;10.706;2023-07-31T01:07:52;4.80;;;2.70;;
5622;SDS011;2833;50.432;10.706;2023-07-31T01:10:21;3.23;;;2.30;;
5622;SDS011;2833;50.432;10.706;2023-07-31T01:12:47;3.10;;;2.17;;
5622;SDS011;2833;50.432;10.706;2023-07-31T01:15:13;3.23;;;2.00;;
5622;SDS011;2833;50.432;10.706;2023-07-31T01:17:40;5.87;;;1.77;;
5622;SDS011;2833;50.432;10.706;2023-07-31T01:20:08;2.23;;;2.00;;
5622;SDS011;2833;50.432;10.706;2023-07-31T01:25:33;3.70;;;2.30;;
5622;SDS011;2833;50.432;10.706;2023-07-31T01:28:07;2.37;;;2.17;;
5622;SDS011;2833;50.432;10.706;2023-07-31T01:30:43;3.20;;;2.30;;
5622;SDS011;2833;50.432;10.706;2023-07-31T01:33:09;2.20;;;2.00;;
5622;SDS011;2833;50.432;10.706;2023-07-31T01:35:35;2.33;;;2.13;;
5622;SDS011;2833;50.432;10.706;2023-07-31T01:38:00;4.13;;;2.20;;
5622;SDS011;2833;50.432;10.706;2023-07-31T01:40:25;3.67;;;2.30;;
5622;SDS011;2833;50.432;10.706;2023-07-31T01:42:51;5.80;;;1.97;;
5622;SDS011;2833;50.432;10.706;2023-07-31T01:45:16;3.47;;;2.70;;
5622;SDS011;2833;50.432;10.706;2023-07-31T01:47:41;5.97;;;2.37;;
5622;SDS011;2833;50.432;10.706;2023-07-31T01:50:06;2.63;;;2.10;;
5622;SDS011;2833;50.432;10.706;2023-07-31T01:52:32;5.90;;;2.53;;
5622;SDS011;2833;50.432;10.706;2023-07-31T01:54:57;3.50;;;2.50;;
5622;SDS011;2833;50.432;10.706;2023-07-31T01:57:22;5.27;;;2.37;;
5622;SDS011;2833;50.432;10.706;2023-07-31T01:59:47;4.80;;;2.50;;
5622;SDS011;2833;50.432;10.706;2023-07-31T02:02:13;4.93;;;2.03;;
5622;SDS011;2833;50.432;10.706;2023-07-31T02:04:38;3.70;;;2.40;;
5622;SDS011;2833;50.432;10.706;2023-07-31T02:07:04;2.47;;;2.10;;
5622;SDS011;2833;50.432;10.706;2023-07-31T02:09:29;2.73;;;2.30;;
5622;SDS011;2833;50.432;10.706;2023-07-31T02:11:55;2.30;;;2.10;;
5622;SDS011;2833;50.432;10.706;2023-07-31T02:14:20;2.43;;;2.23;;
5622;SDS011;2833;50.432;10.706;2023-07-31T02:16:45;3.00;;;2.10;;
5622;SDS011;2833;50.432;10.706;2023-07-31T02:19:10;5.73;;;2.70;;
5622;SDS011;2833;50.432;10.706;2023-07-31T02:21:35;4.83;;;2.40;;
5622;SDS011;2833;50.432;10.706;2023-07-31T02:24:01;5.00;;;2.20;;
5622;SDS011;2833;50.432;10.706;2023-07-31T02:26:26;2.40;;;2.20;;
5622;SDS011;2833;50.432;10.706;2023-07-31T02:28:51;2.73;;;2.40;;
5622;SDS011;2833;50.432;10.706;2023-07-31T02:31:16;4.97;;;2.63;;
5622;SDS011;2833;50.432;10.706;2023-07-31T02:33:42;2.23;;;2.07;;
5622;SDS011;2833;50.432;10.706;2023-07-31T02:36:07;3.37;;;2.63;;
5622;SDS011;2833;50.432;10.706;2023-07-31T02:38:32;4.03;;;2.23;;
5622;SDS011;2833;50.432;10.706;2023-07-31T02:40:57;4.90;;;2.93;;
5622;SDS011;2833;50.432;10.706;2023-07-31T02:43:22;3.30;;;2.37;;
5622;SDS011;2833;50.432;10.706;2023-07-31T02:45:51;2.00;;;1.90;;
5622;SDS011;2833;50.432;10.706;2023-07-31T02:48:17;2.43;;;2.23;;
5622;SDS011;2833;50.432;10.706;2023-07-31T02:50:42;3.30;;;2.30;;
5622;SDS011;2833;50.432;10.706;2023-07-31T02:53:07;5.83;;;2.60;;
5622;SDS011;2833;50.432;10.706;2023-07-31T02:55:33;4.20;;;2.37;;
5622;SDS011;2833;50.432;10.706;2023-07-31T02:57:58;2.77;;;2.27;;
5622;SDS011;2833;50.432;10.706;2023-07-31T03:00:23;2.57;;;2.37;;
5622;SDS011;2833;50.432;10.706;2023-07-31T03:02:49;9.00;;;2.63;;
5622;SDS011;2833;50.432;10.706;2023-07-31T03:05:14;5.33;;;2.30;;
5622;SDS011;2833;50.432;10.706;2023-07-31T03:07:39;5.87;;;2.43;;
5622;SDS011;2833;50.432;10.706;2023-07-31T03:10:04;4.13;;;2.20;;
5622;SDS011;2833;50.432;10.706;2023-07-31T03:12:30;9.50;;;2.40;;
5622;SDS011;2833;50.432;10.706;2023-07-31T03:14:55;2.33;;;2.00;;
5622;SDS011;2833;50.432;10.706;2023-07-31T03:17:20;5.80;;;2.03;;
5622;SDS011;2833;50.432;10.706;2023-07-31T03:19:46;2.97;;;2.30;;
5622;SDS011;2833;50.432;10.706;2023-07-31T03:22:11;3.07;;;2.23;;
5622;SDS011;2833;50.432;10.706;2023-07-31T03:24:36;2.50;;;2.30;;
5622;SDS011;2833;50.432;10.706;2023-07-31T03:27:01;4.67;;;2.40;;
5622;SDS011;2833;50.432;10.706;2023-07-31T03:29:26;2.53;;;2.33;;
5622;SDS011;2833;50.432;10.706;2023-07-31T03:31:52;4.13;;;2.30;;
5622;SDS011;2833;50.432;10.706;2023-07-31T03:34:17;4.60;;;2.40;;
5622;SDS011;2833;50.432;10.706;2023-07-31T03:36:42;3.63;;;2.00;;
5622;SDS011;2833;50.432;10.706;2023-07-31T03:39:07;3.53;;;2.50;;
5622;SDS011;2833;50.432;10.706;2023-07-31T03:41:33;3.70;;;2.30;;
5622;SDS011;2833;50.432;10.706;2023-07-31T03:43:58;10.50;;;2.20;;
5622;SDS011;2833;50.432;10.706;2023-07-31T03:46:23;3.97;;;2.37;;
5622;SDS011;2833;50.432;10.706;2023-07-31T03:48:49;3.20;;;2.40;;
5622;SDS011;2833;50.432;10.706;2023-07-31T03:51:14;2.53;;;2.33;;
5622;SDS011;2833;50.432;10.706;2023-07-31T03:53:40;4.37;;;2.40;;
5622;SDS011;2833;50.432;10.706;2023-07-31T03:56:05;6.43;;;3.03;;
5622;SDS011;2833;50.432;10.706;2023-07-31T03:58:30;2.73;;;2.50;;
5622;SDS011;2833;50.432;10.706;2023-07-31T04:00:55;5.20;;;2.20;;
5622;SDS011;2833;50.432;10.706;2023-07-31T04:03:21;5.23;;;2.30;;
5622;SDS011;2833;50.432;10.706;2023-07-31T04:05:46;10.30;;;2.67;;
5622;SDS011;2833;50.432;10.706;2023-07-31T04:08:11;2.30;;;2.10;;
5622;SDS011;2833;50.432;10.706;2023-07-31T04:10:36;3.63;;;2.37;;
5622;SDS011;2833;50.432;10.706;2023-07-31T04:13:02;5.63;;;2.33;;
5622;SDS011;2833;50.432;10.706;2023-07-31T04:15:27;4.77;;;2.13;;
5622;SDS011;2833;50.432;10.706;2023-07-31T04:17:52;4.20;;;2.17;;
5622;SDS011;2833;50.432;10.706;2023-07-31T04:20:17;4.00;;;2.50;;
5622;SDS011;2833;50.432;10.706;2023-07-31T04:22:42;3.73;;;2.23;;
5622;SDS011;2833;50.432;10.706;2023-07-31T04:25:08;3.60;;;2.40;;
5622;SDS011;2833;50.432;10.706;2023-07-31T04:27:33;3.77;;;2.47;;
5622;SDS011;2833;50.432;10.706;2023-07-31T04:29:58;7.33;;;2.53;;
5622;SDS011;2833;50.432;10.706;2023-07-31T04:32:23;5.90;;;2.43;;
5622;SDS011;2833;50.432;10.706;2023-07-31T04:34:49;6.47;;;2.73;;
5622;SDS011;2833;50.432;10.706;2023-07-31T04:37:14;5.17;;;2.17;;
5622;SDS011;2833;50.432;10.706;2023-07-31T04:39:39;3.30;;;2.40;;
5622;SDS011;2833;50.432;10.706;2023-07-31T04:42:04;2.40;;;2.20;;
5622;SDS011;2833;50.432;10.706;2023-07-31T04:44:29;2.50;;;2.30;;
5622;SDS011;2833;50.432;10.706;2023-07-31T04:46:55;2.17;;;2.00;;
5622;SDS011;2833;50.432;10.706;2023-07-31T04:49:20;5.23;;;2.10;;
5622;SDS011;2833;50.432;10.706;2023-07-31T04:51:45;3.10;;;2.23;;
5622;SDS011;2833;50.432;10.706;2023-07-31T04:54:10;2.47;;;2.20;;
5622;SDS011;2833;50.432;10.706;2023-07-31T04:56:37;4.70;;;2.20;;
5622;SDS011;2833;50.432;10.706;2023-07-31T04:59:02;4.50;;;2.40;;
5622;SDS011;2833;50.432;10.706;2023-07-31T05:01:28;2.20;;;2.10;;
5622;SDS011;2833;50.432;10.706;2023-07-31T05:03:53;3.77;;;2.30;;
5622;SDS011;2833;50.432;10.706;2023-07-31T05:06:18;2.30;;;2.10;;
5622;SDS011;2833;50.432;10.706;2023-07-31T05:08:45;7.80;;;2.80;;
5622;SDS011;2833;50.432;10.706;2023-07-31T05:11:10;3.50;;;2.77;;
5622;SDS011;2833;50.432;10.706;2023-07-31T05:13:35;2.33;;;2.13;;
5622;SDS011;2833;50.432;10.706;2023-07-31T05:16:01;3.50;;;2.50;;
5622;SDS011;2833;50.432;10.706;2023-07-31T05:18:26;4.33;;;2.50;;
5622;SDS011;2833;50.432;10.706;2023-07-31T05:20:51;2.97;;;2.27;;
5622;SDS011;2833;50.432;10.706;2023-07-31T05:23:16;5.93;;;2.13;;
5622;SDS011;2833;50.432;10.706;2023-07-31T05:25:42;6.63;;;2.30;;
5622;SDS011;2833;50.432;10.706;2023-07-31T05:28:07;3.13;;;2.40;;
5622;SDS011;2833;50.432;10.706;2023-07-31T05:30:32;4.23;;;2.60;;
5622;SDS011;2833;50.432;10.706;2023-07-31T05:32:57;2.63;;;2.43;;
5622;SDS011;2833;50.432;10.706;2023-07-31T05:35:23;3.07;;;2.40;;
5622;SDS011;2833;50.432;10.706;2023-07-31T05:37:48;2.60;;;2.17;;
5622;SDS011;2833;50.432;10.706;2023-07-31T05:40:13;2.47;;;2.20;;
5622;SDS011;2833;50.432;10.706;2023-07-31T05:42:39;3.80;;;2.73;;
5622;SDS011;2833;50.432;10.706;2023-07-31T05:45:05;6.60;;;2.30;;
5622;SDS011;2833;50.432;10.706;2023-07-31T05:47:30;3.47;;;2.33;;
5622;SDS011;2833;50.432;10.706;2023-07-31T05:49:56;4.47;;;2.43;;
5622;SDS011;2833;50.432;10.706;2023-07-31T05:52:21;4.53;;;2.20;;
5622;SDS011;2833;50.432;10.706;2023-07-31T05:54:46;2.30;;;2.10;;
5622;SDS011;2833;50.432;10.706;2023-07-31T05:57:11;2.70;;;2.47;;
5622;SDS011;2833;50.432;10.706;2023-07-31T05:59:37;4.20;;;2.40;;
5622;SDS011;2833;50.432;10.706;2023-07-31T06:02:02;3.70;;;2.60;;
5622;SDS011;2833;50.432;10.706;2023-07-31T06:04:27;5.70;;;3.43;;
5622;SDS011;2833;50.432;10.706;2023-07-31T06:06:53;4.30;;;2.37;;
5622;SDS011;2833;50.432;10.706;2023-07-31T06:09:18;17.70;;;2.40;;
5622;SDS011;2833;50.432;10.706;2023-07-31T06:11:43;2.80;;;2.20;;
5622;SDS011;2833;50.432;10.706;2023-07-31T06:14:08;7.33;;;2.97;;
5622;SDS011;2833;50.432;10.706;2023-07-31T06:16:34;5.80;;;2.40;;
5622;SDS011;2833;50.432;10.706;2023-07-31T06:18:59;4.87;;;2.60;;
5622;SDS011;2833;50.432;10.706;2023-07-31T06:21:24;4.10;;;2.63;;
5622;SDS011;2833;50.432;10.706;2023-07-31T06:23:50;3.03;;;2.37;;
5622;SDS011;2833;50.432;10.706;2023-07-31T06:26:15;6.87;;;2.90;;
5622;SDS011;2833;50.432;10.706;2023-07-31T06:28:40;6.00;;;2.60;;
5622;SDS011;2833;50.432;10.706;2023-07-31T06:31:05;3.27;;;2.40;;
5622;SDS011;2833;50.432;10.706;2023-07-31T06:33:30;11.70;;;2.27;;
5622;SDS011;2833;50.432;10.706;2023-07-31T06:35:56;5.80;;;2.40;;
5622;SDS011;2833;50.432;10.706;2023-07-31T06:38:24;2.40;;;2.20;;
5622;SDS011;2833;50.432;10.706;2023-07-31T06:40:50;6.37;;;2.50;;
5622;SDS011;2833;50.432;10.706;2023-07-31T06:43:15;8.17;;;2.80;;
5622;SDS011;2833;50.432;10.706;2023-07-31T06:45:40;5.50;;;2.63;;
5622;SDS011;2833;50.432;10.706;2023-07-31T06:48:06;4.13;;;2.50;;
5622;SDS011;2833;50.432;10.706;2023-07-31T06:50:31;4.87;;;2.70;;
5622;SDS011;2833;50.432;10.706;2023-07-31T06:52:56;5.63;;;2.70;;
5622;SDS011;2833;50.432;10.706;2023-07-31T06:55:22;2.67;;;2.43;;
5622;SDS011;2833;50.432;10.706;2023-07-31T06:57:47;3.20;;;2.40;;
5622;SDS011;2833;50.432;10.706;2023-07-31T07:00:13;4.23;;;2.70;;
5622;SDS011;2833;50.432;10.706;2023-07-31T07:02:38;3.87;;;2.40;;
5622;SDS011;2833;50.432;10.706;2023-07-31T07:05:03;5.17;;;2.80;;
5622;SDS011;2833;50.432;10.706;2023-07-31T07:07:29;2.83;;;2.33;;
5622;SDS011;2833;50.432;10.706;2023-07-31T07:09:54;2.70;;;2.50;;
5622;SDS011;2833;50.432;10.706;2023-07-31T07:12:19;4.20;;;2.27;;
5622;SDS011;2833;50.432;10.706;2023-07-31T07:14:44;5.10;;;2.43;;
5622;SDS011;2833;50.432;10.706;2023-07-31T07:17:12;5.20;;;2.60;;
5622;SDS011;2833;50.432;10.706;2023-07-31T07:19:40;5.90;;;2.70;;
5622;SDS011;2833;50.432;10.706;2023-07-31T07:22:05;2.87;;;2.43;;
5622;SDS011;2833;50.432;10.706;2023-07-31T07:24:30;5.30;;;2.40;;
5622;SDS011;2833;50.432;10.706;2023-07-31T07:26:56;3.80;;;2.47;;
5622;SDS011;2833;50.432;10.706;2023-07-31T07:29:21;4.50;;;2.50;;
5622;SDS011;2833;50.432;10.706;2023-07-31T07:31:46;6.33;;;3.00;;
5622;SDS011;2833;50.432;10.706;2023-07-31T07:34:11;8.97;;;2.37;;
5622;SDS011;2833;50.432;10.706;2023-07-31T07:36:36;3.67;;;2.83;;
5622;SDS011;2833;50.432;10.706;2023-07-31T07:39:02;4.23;;;3.17;;
5622;SDS011;2833;50.432;10.706;2023-07-31T07:41:27;3.70;;;2.80;;
5622;SDS011;2833;50.432;10.706;2023-07-31T07:43:53;4.33;;;2.80;;
5622;SDS011;2833;50.432;10.706;2023-07-31T07:46:18;3.50;;;2.70;;
5622;SDS011;2833;50.432;10.706;2023-07-31T07:48:43;5.90;;;3.23;;
5622;SDS011;2833;50.432;10.706;2023-07-31T07:51:08;3.10;;;2.80;;
5622;SDS011;2833;50.432;10.706;2023-07-31T07:53:33;6.50;;;3.00;;
5622;SDS011;2833;50.432;10.706;2023-07-31T07:55:59;4.40;;;2.90;;
5622;SDS011;2833;50.432;10.706;2023-07-31T07:58:24;4.23;;;3.13;;
5622;SDS011;2833;50.432;10.706;2023-07-31T08:00:52;4.80;;;2.60;;
5622;SDS011;2833;50.432;10.706;2023-07-31T08:03:17;7.27;;;2.93;;
5622;SDS011;2833;50.432;10.706;2023-07-31T08:05:43;6.30;;;3.70;;
5622;SDS011;2833;50.432;10.706;2023-07-31T08:08:08;4.00;;;2.47;;
5622;SDS011;2833;50.432;10.706;2023-07-31T08:10:33;4.93;;;2.83;;
5622;SDS011;2833;50.432;10.706;2023-07-31T08:12:59;3.57;;;2.80;;
5622;SDS011;2833;50.432;10.706;2023-07-31T08:15:24;4.83;;;2.90;;
5622;SDS011;2833;50.432;10.706;2023-07-31T08:17:49;4.27;;;2.90;;
5622;SDS011;2833;50.432;10.706;2023-07-31T08:20:15;5.73;;;2.80;;
5622;SDS011;2833;50.432;10.706;2023-07-31T08:22:40;6.47;;;3.13;;
5622;SDS011;2833;50.432;10.706;2023-07-31T08:25:05;5.70;;;3.40;;
5622;SDS011;2833;50.432;10.706;2023-07-31T08:27:31;8.43;;;3.07;;
5622;SDS011;2833;50.432;10.706;2023-07-31T08:29:57;7.20;;;3.00;;
5622;SDS011;2833;50.432;10.706;2023-07-31T08:32:22;3.93;;;2.50;;
5622;SDS011;2833;50.432;10.706;2023-07-31T08:34:47;4.70;;;2.87;;
5622;SDS011;2833;50.432;10.706;2023-07-31T08:37:12;7.73;;;3.30;;
5622;SDS011;2833;50.432;10.706;2023-07-31T08:39:38;4.70;;;3.07;;
5622;SDS011;2833;50.432;10.706;2023-07-31T08:42:07;5.33;;;2.93;;
5622;SDS011;2833;50.432;10.706;2023-07-31T08:44:32;6.00;;;3.17;;
5622;SDS011;2833;50.432;10.706;2023-07-31T08:46:58;18.33;;;9.87;;
5622;SDS011;2833;50.432;10.706;2023-07-31T08:49:24;16.87;;;8.27;;
5622;SDS011;2833;50.432;10.706;2023-07-31T08:51:50;11.67;;;5.17;;
5622;SDS011;2833;50.432;10.706;2023-07-31T08:54:17;6.80;;;4.10;;
5622;SDS011;2833;50.432;10.706;2023-07-31T08:56:42;9.83;;;3.67;;
5622;SDS011;2833;50.432;10.706;2023-07-31T08:59:07;5.47;;;3.30;;
5622;SDS011;2833;50.432;10.706;2023-07-31T09:01:35;3.83;;;2.50;;
5622;SDS011;2833;50.432;10.706;2023-07-31T09:04:02;8.97;;;3.20;;
5622;SDS011;2833;50.432;10.706;2023-07-31T09:06:29;7.30;;;3.43;;
5622;SDS011;2833;50.432;10.706;2023-07-31T09:08:55;4.50;;;2.60;;
5622;SDS011;2833;50.432;10.706;2023-07-31T09:11:21;3.53;;;2.60;;
5622;SDS011;2833;50.432;10.706;2023-07-31T09:13:46;6.30;;;2.60;;
5622;SDS011;2833;50.432;10.706;2023-07-31T09:16:11;3.23;;;2.90;;
5622;SDS011;2833;50.432;10.706;2023-07-31T09:18:52;3.40;;;3.10;;
5622;SDS011;2833;50.432;10.706;2023-07-31T09:21:17;4.37;;;2.77;;
5622;SDS011;2833;50.432;10.706;2023-07-31T09:23:43;8.13;;;3.27;;
5622;SDS011;2833;50.432;10.706;2023-07-31T09:26:09;7.10;;;2.97;;
5622;SDS011;2833;50.432;10.706;2023-07-31T09:28:34;3.03;;;2.70;;
5622;SDS011;2833;50.432;10.706;2023-07-31T09:30:59;5.70;;;3.10;;
5622;SDS011;2833;50.432;10.706;2023-07-31T09:33:25;4.67;;;2.80;;
5622;SDS011;2833;50.432;10.706;2023-07-31T09:35:50;5.73;;;3.20;;
5622;SDS011;2833;50.432;10.706;2023-07-31T09:38:15;5.63;;;2.90;;
5622;SDS011;2833;50.432;10.706;2023-07-31T09:40:42;4.93;;;3.20;;
5622;SDS011;2833;50.432;10.706;2023-07-31T09:43:11;10.07;;;3.23;;
5622;SDS011;2833;50.432;10.706;2023-07-31T09:45:37;9.17;;;3.53;;
5622;SDS011;2833;50.432;10.706;2023-07-31T09:48:02;3.70;;;2.93;;
5622;SDS011;2833;50.432;10.706;2023-07-31T09:50:28;4.87;;;3.00;;
5622;SDS011;2833;50.432;10.706;2023-07-31T09:52:54;9.83;;;3.13;;
5622;SDS011;2833;50.432;10.706;2023-07-31T09:55:19;7.20;;;3.10;;
5622;SDS011;2833;50.432;10.706;2023-07-31T09:57:45;11.30;;;3.30;;
5622;SDS011;2833;50.432;10.706;2023-07-31T10:00:12;5.57;;;2.87;;
5622;SDS011;2833;50.432;10.706;2023-07-31T10:02:37;4.90;;;3.27;;
5622;SDS011;2833;50.432;10.706;2023-07-31T10:05:03;3.33;;;2.97;;
5622;SDS011;2833;50.432;10.706;2023-07-31T10:07:30;7.00;;;3.00;;
5622;SDS011;2833;50.432;10.706;2023-07-31T10:09:56;5.20;;;2.73;;
5622;SDS011;2833;50.432;10.706;2023-07-31T10:12:22;4.73;;;3.07;;
5622;SDS011;2833;50.432;10.706;2023-07-31T10:14:50;4.00;;;2.77;;
5622;SDS011;2833;50.432;10.706;2023-07-31T10:17:17;8.30;;;3.40;;
5622;SDS011;2833;50.432;10.706;2023-07-31T10:19:43;4.80;;;2.80;;
5622;SDS011;2833;50.432;10.706;2023-07-31T10:22:09;6.13;;;3.40;;
5622;SDS011;2833;50.432;10.706;2023-07-31T10:24:34;4.83;;;3.30;;
5622;SDS011;2833;50.432;10.706;2023-07-31T10:27:01;4.30;;;3.00;;
5622;SDS011;2833;50.432;10.706;2023-07-31T10:29:27;5.20;;;3.50;;
5622;SDS011;2833;50.432;10.706;2023-07-31T10:31:54;7.40;;;3.00;;
5622;SDS011;2833;50.432;10.706;2023-07-31T10:34:21;4.77;;;3.10;;
5622;SDS011;2833;50.432;10.706;2023-07-31T10:36:47;4.43;;;2.90;;
5622;SDS011;2833;50.432;10.706;2023-07-31T10:39:33;5.83;;;2.50;;
5622;SDS011;2833;50.432;10.706;2023-07-31T10:41:58;3.47;;;2.77;;
5622;SDS011;2833;50.432;10.706;2023-07-31T10:44:23;5.13;;;3.20;;
5622;SDS011;2833;50.432;10.706;2023-07-31T10:46:48;5.03;;;3.27;;
5622;SDS011;2833;50.432;10.706;2023-07-31T10:49:13;7.73;;;2.80;;
5622;SDS011;2833;50.432;10.706;2023-07-31T10:51:46;5.20;;;3.17;;
5622;SDS011;2833;50.432;10.706;2023-07-31T10:54:12;9.73;;;3.00;;
5622;SDS011;2833;50.432;10.706;2023-07-31T10:56:39;3.10;;;2.57;;
5622;SDS011;2833;50.432;10.706;2023-07-31T10:59:04;4.37;;;2.87;;
5622;SDS011;2833;50.432;10.706;2023-07-31T11:01:49;6.13;;;2.90;;
5622;SDS011;2833;50.432;10.706;2023-07-31T11:04:15;4.43;;;3.00;;
5622;SDS011;2833;50.432;10.706;2023-07-31T11:06:55;4.60;;;3.10;;
5622;SDS011;2833;50.432;10.706;2023-07-31T11:09:20;4.07;;;2.80;;
5622;SDS011;2833;50.432;10.706;2023-07-31T11:14:16;4.80;;;2.73;;
5622;SDS011;2833;50.432;10.706;2023-07-31T11:16:41;5.10;;;3.20;;
5622;SDS011;2833;50.432;10.706;2023-07-31T11:19:08;7.37;;;3.17;;
5622;SDS011;2833;50.432;10.706;2023-07-31T11:21:33;4.90;;;3.50;;
5622;SDS011;2833;50.432;10.706;2023-07-31T11:23:58;7.50;;;3.70;;
5622;SDS011;2833;50.432;10.706;2023-07-31T11:26:24;4.47;;;3.40;;
5622;SDS011;2833;50.432;10.706;2023-07-31T11:28:50;6.23;;;3.10;;
5622;SDS011;2833;50.432;10.706;2023-07-31T11:31:15;8.60;;;3.90;;
5622;SDS011;2833;50.432;10.706;2023-07-31T11:33:41;8.80;;;3.50;;
5622;SDS011;2833;50.432;10.706;2023-07-31T11:36:06;5.70;;;3.57;;
5622;SDS011;2833;50.432;10.706;2023-07-31T11:38:33;3.53;;;2.80;;
5622;SDS011;2833;50.432;10.706;2023-07-31T11:41:02;8.90;;;3.57;;
5622;SDS011;2833;50.432;10.706;2023-07-31T11:43:28;7.03;;;3.77;;
5622;SDS011;2833;50.432;10.706;2023-07-31T11:45:56;6.60;;;3.77;;
5622;SDS011;2833;50.432;10.706;2023-07-31T11:48:23;9.10;;;4.77;;
5622;SDS011;2833;50.432;10.706;2023-07-31T11:50:49;4.83;;;2.97;;
5622;SDS011;2833;50.432;10.706;2023-07-31T11:53:15;5.87;;;3.07;;
5622;SDS011;2833;50.432;10.706;2023-07-31T11:55:42;8.00;;;3.60;;
5622;SDS011;2833;50.432;10.706;2023-07-31T11:58:07;8.73;;;3.33;;
5622;SDS011;2833;50.432;10.706;2023-07-31T12:00:33;4.67;;;3.20;;
5622;SDS011;2833;50.432;10.706;2023-07-31T12:02:58;6.30;;;3.70;;
5622;SDS011;2833;50.432;10.706;2023-07-31T12:05:24;5.50;;;3.30;;
5622;SDS011;2833;50.432;10.706;2023-07-31T12:07:50;4.57;;;3.00;;
5622;SDS011;2833;50.432;10.706;2023-07-31T12:10:49;4.50;;;2.90;;
5622;SDS011;2833;50.432;10.706;2023-07-31T12:13:08;7.00;;;3.33;;
5622;SDS011;2833;50.432;10.706;2023-07-31T12:15:41;8.77;;;2.90;;
5622;SDS011;2833;50.432;10.706;2023-07-31T12:18:11;7.63;;;3.80;;
5622;SDS011;2833;50.432;10.706;2023-07-31T12:20:44;6.50;;;3.53;;
5622;SDS011;2833;50.432;10.706;2023-07-31T12:23:16;10.67;;;4.03;;
5622;SDS011;2833;50.432;10.706;2023-07-31T12:25:42;4.60;;;3.30;;
5622;SDS011;2833;50.432;10.706;2023-07-31T12:28:07;4.10;;;3.17;;
5622;SDS011;2833;50.432;10.706;2023-07-31T12:30:37;6.70;;;3.20;;
5622;SDS011;2833;50.432;10.706;2023-07-31T12:33:03;4.63;;;3.43;;
5622;SDS011;2833;50.432;10.706;2023-07-31T12:35:34;4.63;;;3.70;;
5622;SDS011;2833;50.432;10.706;2023-07-31T12:38:01;7.07;;;4.10;;
5622;SDS011;2833;50.432;10.706;2023-07-31T12:40:26;5.80;;;3.03;;
5622;SDS011;2833;50.432;10.706;2023-07-31T12:42:51;5.37;;;3.23;;
5622;SDS011;2833;50.432;10.706;2023-07-31T12:45:17;5.97;;;3.40;;
5622;SDS011;2833;50.432;10.706;2023-07-31T12:47:42;7.13;;;3.50;;
5622;SDS011;2833;50.432;10.706;2023-07-31T12:50:07;5.47;;;3.40;;
5622;SDS011;2833;50.432;10.706;2023-07-31T12:52:33;4.60;;;3.63;;
5622;SDS011;2833;50.432;10.706;2023-07-31T12:54:59;8.33;;;4.13;;
5622;SDS011;2833;50.432;10.706;2023-07-31T12:57:24;5.13;;;3.10;;
5622;SDS011;2833;50.432;10.706;2023-07-31T12:59:49;6.50;;;3.67;;
5622;SDS011;2833;50.432;10.706;2023-07-31T13:02:14;5.87;;;3.23;;
5622;SDS011;2833;50.432;10.706;2023-07-31T13:04:39;5.27;;;3.57;;
5622;SDS011;2833;50.432;10.706;2023-07-31T13:07:05;4.83;;;3.10;;
5622;SDS011;2833;50.432;10.706;2023-07-31T13:09:30;4.73;;;3.37;;
5622;SDS011;2833;50.432;10.706;2023-07-31T13:11:55;8.13;;;3.73;;
5622;SDS011;2833;50.432;10.706;2023-07-31T13:14:20;5.20;;;3.50;;
5622;SDS011;2833;50.432;10.706;2023-07-31T13:16:46;6.10;;;3.43;;
5622;SDS011;2833;50.432;10.706;2023-07-31T13:19:11;6.70;;;3.17;;
5622;SDS011;2833;50.432;10.706;2023-07-31T13:21:36;5.77;;;3.17;;
5622;SDS011;2833;50.432;10.706;2023-07-31T13:24:02;5.07;;;3.67;;
5622;SDS011;2833;50.432;10.706;2023-07-31T13:26:27;6.40;;;3.53;;
5622;SDS011;2833;50.432;10.706;2023-07-31T13:28:52;3.67;;;3.07;;
5622;SDS011;2833;50.432;10.706;2023-07-31T13:31:18;6.97;;;4.30;;
5622;SDS011;2833;50.432;10.706;2023-07-31T13:33:43;4.70;;;3.33;;
5622;SDS011;2833;50.432;10.706;2023-07-31T13:36:08;6.10;;;3.63;;
5622;SDS011;2833;50.432;10.706;2023-07-31T13:38:33;6.17;;;3.23;;
5622;SDS011;2833;50.432;10.706;2023-07-31T13:40:59;5.60;;;3.90;;
5622;SDS011;2833;50.432;10.706;2023-07-31T13:43:24;5.50;;;3.67;;
5622;SDS011;2833;50.432;10.706;2023-07-31T13:45:49;8.50;;;3.50;;
5622;SDS011;2833;50.432;10.706;2023-07-31T13:48:14;5.97;;;3.80;;
5622;SDS011;2833;50.432;10.706;2023-07-31T13:50:39;6.07;;;3.70;;
5622;SDS011;2833;50.432;10.706;2023-07-31T13:53:05;6.53;;;3.73;;
5622;SDS011;2833;50.432;10.706;2023-07-31T13:55:30;6.83;;;3.83;;
5622;SDS011;2833;50.432;10.706;2023-07-31T13:57:55;4.63;;;3.23;;
5622;SDS011;2833;50.432;10.706;2023-07-31T14:00:20;8.23;;;3.00;;
5622;SDS011;2833;50.432;10.706;2023-07-31T14:02:45;5.60;;;3.97;;
5622;SDS011;2833;50.432;10.706;2023-07-31T14:05:11;5.23;;;3.33;;
5622;SDS011;2833;50.432;10.706;2023-07-31T14:07:36;4.27;;;3.27;;
5622;SDS011;2833;50.432;10.706;2023-07-31T14:10:01;4.17;;;3.67;;
5622;SDS011;2833;50.432;10.706;2023-07-31T14:12:28;6.33;;;3.20;;
5622;SDS011;2833;50.432;10.706;2023-07-31T14:14:54;8.93;;;3.40;;
5622;SDS011;2833;50.432;10.706;2023-07-31T14:17:19;4.17;;;3.30;;
5622;SDS011;2833;50.432;10.706;2023-07-31T14:19:44;4.43;;;3.37;;
5622;SDS011;2833;50.432;10.706;2023-07-31T14:22:09;4.10;;;3.10;;
5622;SDS011;2833;50.432;10.706;2023-07-31T14:24:35;5.60;;;3.37;;
5622;SDS011;2833;50.432;10.706;2023-07-31T14:27:00;6.20;;;3.70;;
5622;SDS011;2833;50.432;10.706;2023-07-31T14:29:25;7.40;;;3.50;;
5622;SDS011;2833;50.432;10.706;2023-07-31T14:31:50;6.80;;;3.50;;
5622;SDS011;2833;50.432;10.706;2023-07-31T14:34:15;7.93;;;3.67;;
5622;SDS011;2833;50.432;10.706;2023-07-31T14:36:41;4.60;;;3.30;;
5622;SDS011;2833;50.432;10.706;2023-07-31T14:39:07;6.03;;;4.20;;
5622;SDS011;2833;50.432;10.706;2023-07-31T14:41:32;4.10;;;3.20;;
5622;SDS011;2833;50.432;10.706;2023-07-31T14:43:57;4.80;;;3.00;;
5622;SDS011;2833;50.432;10.706;2023-07-31T14:46:22;6.90;;;3.90;;
5622;SDS011;2833;50.432;10.706;2023-07-31T14:48:48;5.53;;;4.13;;
5622;SDS011;2833;50.432;10.706;2023-07-31T14:51:13;10.10;;;3.80;;
5622;SDS011;2833;50.432;10.706;2023-07-31T14:53:39;9.07;;;3.37;;
5622;SDS011;2833;50.432;10.706;2023-07-31T14:56:04;3.40;;;3.10;;
5622;SDS011;2833;50.432;10.706;2023-07-31T14:58:29;4.60;;;3.77;;